createdAt,value
2022-10-09T00:02:02.269Z,21.80
2022-10-09T00:05:05.991Z,20.98
2022-10-09T00:08:09.314Z,21.27
2022-10-09T00:11:16.614Z,20.80
2022-10-09T00:14:19.915Z,20.92
2022-10-09T00:17:23.135Z,18.98
2022-10-09T00:20:26.347Z,24.42
2022-10-09T00:23:29.528Z,24.40
2022-10-09T00:26:33.245Z,23.53
2022-10-09T00:29:36.497Z,21.90
2022-10-09T00:32:39.752Z,24.38
2022-10-09T00:35:43.547Z,22.85
2022-10-09T00:38:47.136Z,25.90
2022-10-09T00:41:50.233Z,21.40
2022-10-09T00:45:00.201Z,21.50
2022-10-09T00:48:07.222Z,22.25
2022-10-09T00:51:10.657Z,24.67
2022-10-09T00:54:16.100Z,22.25
2022-10-09T00:57:19.534Z,20.80
2022-10-09T01:00:23.112Z,23.83
2022-10-09T01:03:26.319Z,23.60
2022-10-09T01:06:56.707Z,22.50
2022-10-09T01:10:17.365Z,22.65
2022-10-09T01:13:32.546Z,24.20
2022-10-09T01:17:13.648Z,21.42
2022-10-09T01:20:25.705Z,21.63
2022-10-09T01:24:05.872Z,25.05
2022-10-09T01:27:23.781Z,25.42
2022-10-09T01:30:27.428Z,22.57
2022-10-09T01:33:32.777Z,21.42
2022-10-09T01:36:37.198Z,24.20
2022-10-09T01:39:42.918Z,23.90
2022-10-09T01:42:49.291Z,24.15
2022-10-09T01:45:52.794Z,23.70
2022-10-09T01:49:14.724Z,22.55
2022-10-09T01:52:55.460Z,26.33
2022-10-09T01:56:09.059Z,24.10
2022-10-09T01:59:16.209Z,26.38
2022-10-09T02:02:20.506Z,26.37
2022-10-09T02:05:27.567Z,28.48
2022-10-09T02:08:34.412Z,25.63
2022-10-09T02:11:39.769Z,27.50
2022-10-09T02:14:42.879Z,27.60
2022-10-09T02:17:49.560Z,27.97
2022-10-09T02:20:56.766Z,29.95
2022-10-09T02:24:02.008Z,24.88
2022-10-09T02:27:06.178Z,28.95
2022-10-09T02:30:10.859Z,30.40
2022-10-09T02:33:13.993Z,29.13
2022-10-09T02:36:17.143Z,31.63
2022-10-09T02:39:20.276Z,25.17
2022-10-09T02:42:23.452Z,33.00
2022-10-09T02:45:26.620Z,24.33
2022-10-09T02:48:29.749Z,24.43
2022-10-09T02:51:33.168Z,25.70
2022-10-09T02:54:36.262Z,26.35
2022-10-09T02:57:39.422Z,25.90
2022-10-09T03:00:42.652Z,25.38
2022-10-09T03:03:45.878Z,28.87
2022-10-09T03:06:48.984Z,26.73
2022-10-09T03:09:52.778Z,25.27
2022-10-09T03:12:55.878Z,25.73
2022-10-09T03:16:10.912Z,25.30
2022-10-09T03:19:14.112Z,29.17
2022-10-09T03:22:17.205Z,23.05
2022-10-09T03:25:20.746Z,24.88
2022-10-09T03:28:24.259Z,21.88
2022-10-09T03:31:50.786Z,25.60
2022-10-09T03:34:51.163Z,22.90
2022-10-09T03:37:54.272Z,25.50
2022-10-09T03:41:00.001Z,25.35
2022-10-09T03:44:03.100Z,28.30
2022-10-09T03:47:06.340Z,24.80
2022-10-09T03:50:09.809Z,23.23
2022-10-09T03:53:13.904Z,23.75
2022-10-09T03:56:17.036Z,25.45
2022-10-09T03:59:20.211Z,23.60
2022-10-09T04:02:23.468Z,24.95
2022-10-09T04:05:26.892Z,27.03
2022-10-09T04:08:30.023Z,26.88
2022-10-09T04:11:33.212Z,22.05
2022-10-09T04:14:36.364Z,26.45
2022-10-09T04:17:39.482Z,28.25
2022-10-09T04:20:49.413Z,25.00
2022-10-09T04:23:52.721Z,24.20
2022-10-09T04:26:56.945Z,24.98
2022-10-09T04:30:00.116Z,24.92
2022-10-09T04:33:03.365Z,26.52
2022-10-09T04:36:06.765Z,23.03
2022-10-09T04:39:09.931Z,26.40
2022-10-09T04:42:13.068Z,25.13
2022-10-09T04:45:16.316Z,24.63
2022-10-09T04:48:19.718Z,23.48
2022-10-09T04:51:22.976Z,27.10
2022-10-09T04:54:26.126Z,27.88
2022-10-09T04:57:29.227Z,26.70
2022-10-09T05:00:32.464Z,25.13
2022-10-09T05:03:36.542Z,29.33
2022-10-09T05:06:39.709Z,27.40
2022-10-09T05:09:43.117Z,27.92
2022-10-09T05:12:46.534Z,27.70
2022-10-09T05:15:49.857Z,26.85
2022-10-09T05:18:56.203Z,24.50
2022-10-09T05:22:00.639Z,26.57
2022-10-09T05:25:04.211Z,27.10
2022-10-09T05:28:07.356Z,26.38
2022-10-09T05:31:15.321Z,34.03
2022-10-09T05:34:23.476Z,23.63
2022-10-09T05:37:26.655Z,23.80
2022-10-09T05:40:29.753Z,27.73
2022-10-09T05:43:35.832Z,32.40
2022-10-09T05:46:38.911Z,27.27
2022-10-09T05:49:42.067Z,28.17
2022-10-09T05:52:45.255Z,25.43
2022-10-09T05:55:48.380Z,24.33
2022-10-09T05:59:05.096Z,25.65
2022-10-09T06:02:09.246Z,24.65
2022-10-09T06:05:12.369Z,27.65
2022-10-09T06:08:15.513Z,25.70
2022-10-09T06:11:20.107Z,25.95
2022-10-09T06:14:24.492Z,23.17
2022-10-09T06:17:27.703Z,22.70
2022-10-09T06:20:30.999Z,24.33
2022-10-09T06:23:34.551Z,21.67
2022-10-09T06:26:37.952Z,25.02
2022-10-09T06:29:41.129Z,31.33
2022-10-09T06:32:44.293Z,22.52
2022-10-09T06:35:47.502Z,23.45
2022-10-09T06:38:51.457Z,26.97
2022-10-09T06:41:54.672Z,23.27
2022-10-09T06:45:20.444Z,27.35
2022-10-09T06:48:23.540Z,24.70
2022-10-09T06:51:30.756Z,26.77
2022-10-09T06:54:34.032Z,26.27
2022-10-09T06:57:38.249Z,26.88
2022-10-09T07:00:47.441Z,27.63
2022-10-09T07:03:58.003Z,28.88
2022-10-09T07:07:02.811Z,27.77
2022-10-09T07:10:06.501Z,26.90
2022-10-09T07:13:09.660Z,28.77
2022-10-09T07:16:12.878Z,29.75
2022-10-09T07:19:18.268Z,28.20
2022-10-09T07:22:26.129Z,26.13
2022-10-09T07:25:30.038Z,29.37
2022-10-09T07:28:33.566Z,28.75
2022-10-09T07:31:37.069Z,30.67
2022-10-09T07:34:40.248Z,27.10
2022-10-09T07:37:43.425Z,26.27
2022-10-09T07:40:46.729Z,23.53
2022-10-09T07:43:50.396Z,28.40
2022-10-09T07:46:53.524Z,25.40
2022-10-09T07:49:57.183Z,23.48
2022-10-09T07:53:00.363Z,30.88
2022-10-09T07:56:04.520Z,23.63
2022-10-09T07:59:13.384Z,23.10
2022-10-09T08:02:16.853Z,24.02
2022-10-09T08:05:19.952Z,23.02
2022-10-09T08:08:23.212Z,20.80
2022-10-09T08:11:28.096Z,21.10
2022-10-09T08:14:31.189Z,23.95
2022-10-09T08:17:34.381Z,22.77
2022-10-09T08:20:37.893Z,22.08
2022-10-09T08:23:41.184Z,23.83
2022-10-09T08:26:44.611Z,21.57
2022-10-09T08:29:47.988Z,22.98
2022-10-09T08:32:51.522Z,23.90
2022-10-09T08:35:55.148Z,22.45
2022-10-09T08:38:59.152Z,20.85
2022-10-09T08:42:03.363Z,20.73
2022-10-09T08:45:13.666Z,21.25
2022-10-09T08:48:22.128Z,24.75
2022-10-09T08:51:29.565Z,23.80
2022-10-09T08:54:36.049Z,21.70
2022-10-09T08:57:40.195Z,22.27
2022-10-09T09:01:22.075Z,20.27
2022-10-09T09:04:38.448Z,21.23
2022-10-09T09:07:44.573Z,23.17
2022-10-09T09:10:57.539Z,21.42
2022-10-09T09:14:29.518Z,22.73
2022-10-09T09:17:51.208Z,25.83
2022-10-09T09:20:57.273Z,21.80
2022-10-09T09:24:03.009Z,23.17
2022-10-09T09:27:20.106Z,22.90
2022-10-09T09:30:37.771Z,23.23
2022-10-09T09:33:49.296Z,23.58
2022-10-09T09:36:59.184Z,21.65
2022-10-09T09:43:27.013Z,22.42
2022-10-09T09:46:32.405Z,22.80
2022-10-09T09:49:35.600Z,20.88
2022-10-09T09:52:43.593Z,21.73
2022-10-09T09:55:51.237Z,20.90
2022-10-09T09:58:54.566Z,22.20
2022-10-09T10:02:17.143Z,20.17
2022-10-09T10:05:27.649Z,21.83
2022-10-09T10:08:34.719Z,22.65
2022-10-09T10:11:43.051Z,23.20
2022-10-09T10:14:50.889Z,21.70
2022-10-09T10:18:13.113Z,25.87
2022-10-09T10:21:19.016Z,22.92
2022-10-09T10:24:27.721Z,22.98
2022-10-09T10:27:42.682Z,17.33
2022-10-09T10:30:46.234Z,21.17
2022-10-09T10:33:55.719Z,21.40
2022-10-09T10:37:22.607Z,18.13
2022-10-09T10:40:37.829Z,14.60
2022-10-09T10:44:09.501Z,14.82
2022-10-09T10:47:19.746Z,15.23
2022-10-09T10:50:37.247Z,16.03
2022-10-09T10:53:58.739Z,14.27
2022-10-09T10:57:32.458Z,16.13
2022-10-09T11:00:43.146Z,17.35
2022-10-09T11:04:23.653Z,19.20
2022-10-09T11:07:49.312Z,13.03
2022-10-09T11:11:01.647Z,17.10
2022-10-09T11:14:27.981Z,20.90
2022-10-09T11:17:54.416Z,17.52
2022-10-09T11:21:23.133Z,15.07
2022-10-09T11:24:45.663Z,17.47
2022-10-09T11:27:54.780Z,12.38
2022-10-09T11:31:06.523Z,20.52
2022-10-09T11:34:40.388Z,17.63
2022-10-09T11:37:48.410Z,15.98
2022-10-09T11:40:52.417Z,17.07
2022-10-09T11:44:35.152Z,23.17
2022-10-09T11:47:59.376Z,18.20
2022-10-09T11:51:16.796Z,15.05
2022-10-09T11:54:22.488Z,16.92
2022-10-09T11:57:29.675Z,15.10
2022-10-09T12:00:41.264Z,15.27
2022-10-09T12:03:44.668Z,13.32
2022-10-09T12:06:49.486Z,17.83
2022-10-09T12:10:16.731Z,15.20
2022-10-09T12:13:38.764Z,14.43
2022-10-09T12:16:45.318Z,12.70
2022-10-09T12:20:04.927Z,12.15
2022-10-09T12:23:27.422Z,12.57
2022-10-09T12:26:31.800Z,14.18
2022-10-09T12:29:57.436Z,13.40
2022-10-09T12:33:17.228Z,14.80
2022-10-09T12:36:26.468Z,12.48
2022-10-09T12:39:33.701Z,12.52
2022-10-09T12:42:37.010Z,12.68
2022-10-09T12:45:45.257Z,14.67
2022-10-09T12:48:48.590Z,12.60
2022-10-09T12:51:57.269Z,14.38
2022-10-09T12:55:02.592Z,12.32
2022-10-09T12:58:31.671Z,12.80
2022-10-09T13:01:35.729Z,10.73
2022-10-09T13:04:38.997Z,10.98
2022-10-09T13:07:45.283Z,10.90
2022-10-09T13:10:51.933Z,10.57
2022-10-09T13:13:56.324Z,10.25
2022-10-09T13:16:59.579Z,13.70
2022-10-09T13:20:16.755Z,13.95
2022-10-09T13:23:35.822Z,8.88
2022-10-09T13:26:42.508Z,9.98
2022-10-09T13:29:47.642Z,10.48
2022-10-09T13:32:50.879Z,9.63
2022-10-09T13:35:53.961Z,11.45
2022-10-09T13:38:57.028Z,11.93
2022-10-09T13:42:01.964Z,10.65
2022-10-09T13:45:06.313Z,11.45
2022-10-09T13:48:09.540Z,12.53
2022-10-09T13:51:12.760Z,9.35
2022-10-09T13:54:15.851Z,12.25
2022-10-09T13:57:19.116Z,12.27
2022-10-09T14:00:22.849Z,13.98
2022-10-09T14:03:26.361Z,13.43
2022-10-09T14:06:29.597Z,9.75
2022-10-09T14:09:32.982Z,16.20
2022-10-09T14:12:36.501Z,15.82
2022-10-09T14:15:40.930Z,16.20
2022-10-09T14:18:47.756Z,14.23
2022-10-09T14:21:50.896Z,15.20
2022-10-09T14:24:54.057Z,12.63
2022-10-09T14:27:57.175Z,11.85
2022-10-09T14:31:04.252Z,18.60
2022-10-09T14:34:07.412Z,13.70
2022-10-09T14:37:23.929Z,12.77
2022-10-09T14:40:33.679Z,13.60
2022-10-09T14:43:36.971Z,18.05
2022-10-09T14:46:40.211Z,15.13
2022-10-09T14:49:43.439Z,15.10
2022-10-09T14:52:48.116Z,15.60
2022-10-09T14:55:51.360Z,15.27
2022-10-09T14:58:54.874Z,18.27
2022-10-09T15:01:59.039Z,15.73
2022-10-09T15:05:02.162Z,18.23
2022-10-09T15:08:05.408Z,12.57
2022-10-09T15:11:10.845Z,16.58
2022-10-09T15:14:14.097Z,16.98
2022-10-09T15:17:17.232Z,15.60
2022-10-09T15:20:21.260Z,12.63
2022-10-09T15:23:24.453Z,13.57
2022-10-09T15:26:29.487Z,13.48
2022-10-09T15:29:32.803Z,13.70
2022-10-09T15:32:36.285Z,15.48
2022-10-09T15:35:39.459Z,14.73
2022-10-09T15:38:42.656Z,13.88
2022-10-09T15:41:47.236Z,13.05
2022-10-09T15:44:50.403Z,13.85
2022-10-09T15:47:53.516Z,13.70
2022-10-09T15:50:56.819Z,14.90
2022-10-09T15:54:03.880Z,12.75
2022-10-09T15:57:07.083Z,13.77
2022-10-09T16:00:11.048Z,17.25
2022-10-09T16:03:15.195Z,15.57
2022-10-09T16:06:23.177Z,15.63
2022-10-09T16:09:26.882Z,17.90
2022-10-09T16:12:30.218Z,14.27
2022-10-09T16:15:41.556Z,17.15
2022-10-09T16:18:45.113Z,14.70
2022-10-09T16:21:50.469Z,14.50
2022-10-09T16:24:53.934Z,19.50
2022-10-09T16:27:57.419Z,13.52
2022-10-09T16:31:00.779Z,17.88
2022-10-09T16:34:05.611Z,16.48
2022-10-09T16:37:08.793Z,18.63
2022-10-09T16:40:12.778Z,20.38
2022-10-09T16:43:16.843Z,18.75
2022-10-09T16:46:23.978Z,17.83
2022-10-09T16:49:27.261Z,17.25
2022-10-09T16:52:30.412Z,16.20
2022-10-09T16:55:33.550Z,16.50
2022-10-09T16:58:36.725Z,15.20
2022-10-09T17:01:43.733Z,15.23
2022-10-09T17:04:47.305Z,13.77
2022-10-09T17:07:51.732Z,14.13
2022-10-09T17:10:55.497Z,12.77
2022-10-09T17:13:59.253Z,13.02
2022-10-09T17:17:02.705Z,14.45
2022-10-09T17:20:06.292Z,14.30
2022-10-09T17:23:10.172Z,12.40
2022-10-09T17:26:16.182Z,9.70
2022-10-09T17:29:19.646Z,13.27
2022-10-09T17:32:23.058Z,9.48
2022-10-09T17:35:26.321Z,14.65
2022-10-09T17:38:29.787Z,11.07
2022-10-09T17:41:33.137Z,12.70
2022-10-09T17:44:36.255Z,9.95
2022-10-09T17:47:39.410Z,10.40
2022-10-09T17:50:54.836Z,8.85
2022-10-09T17:54:01.239Z,10.63
2022-10-09T17:57:06.981Z,12.90
2022-10-09T18:00:11.142Z,8.68
2022-10-09T18:03:15.452Z,7.25
2022-10-09T18:06:20.869Z,9.90
2022-10-09T18:09:24.211Z,12.73
2022-10-09T18:12:27.412Z,8.60
2022-10-09T18:15:30.657Z,10.00
2022-10-09T18:18:34.695Z,9.02
2022-10-09T18:21:43.158Z,7.72
2022-10-09T18:24:46.357Z,10.23
2022-10-09T18:27:49.839Z,8.07
2022-10-09T18:30:53.718Z,10.63
2022-10-09T18:33:58.858Z,9.65
2022-10-09T18:37:02.098Z,11.20
2022-10-09T18:40:06.153Z,9.60
2022-10-09T18:43:10.770Z,11.18
2022-10-09T18:46:15.085Z,11.68
2022-10-09T18:49:21.467Z,9.38
2022-10-09T18:52:24.959Z,10.32
2022-10-09T18:55:28.427Z,9.03
2022-10-09T18:58:32.171Z,8.25
2022-10-09T19:01:35.840Z,9.57
2022-10-09T19:04:39.085Z,9.02
2022-10-09T19:07:42.358Z,9.27
2022-10-09T19:10:51.297Z,10.87
2022-10-09T19:13:55.111Z,8.57
2022-10-09T19:16:58.427Z,7.90
2022-10-09T19:20:01.643Z,8.02
2022-10-09T19:23:05.068Z,11.75
2022-10-09T19:26:08.327Z,8.03
2022-10-09T19:29:11.511Z,9.68
2022-10-09T19:32:14.721Z,6.97
2022-10-09T19:35:18.017Z,7.50
2022-10-09T19:38:22.089Z,8.68
2022-10-09T19:41:25.466Z,7.23
2022-10-09T19:44:28.573Z,7.13
2022-10-09T19:47:31.736Z,7.18
2022-10-09T19:50:40.305Z,5.90
2022-10-09T19:53:43.632Z,6.47
2022-10-09T19:56:46.836Z,8.03
2022-10-09T19:59:50.155Z,6.93
2022-10-09T20:02:53.446Z,8.90
2022-10-09T20:06:00.626Z,6.97
2022-10-09T20:09:05.452Z,8.75
2022-10-09T20:12:09.645Z,7.20
2022-10-09T20:15:12.788Z,6.43
2022-10-09T20:18:16.015Z,9.18
2022-10-09T20:21:22.140Z,9.45
2022-10-09T20:24:25.276Z,15.13
2022-10-09T20:27:29.459Z,4.80
2022-10-09T20:30:32.775Z,5.75
2022-10-09T20:33:37.889Z,4.88
2022-10-09T20:36:41.118Z,5.40
2022-10-09T20:39:44.208Z,4.93
2022-10-09T20:42:47.572Z,6.10
2022-10-09T20:45:50.948Z,5.20
2022-10-09T20:48:54.590Z,6.15
2022-10-09T20:51:57.796Z,5.85
2022-10-09T20:55:00.977Z,4.75
2022-10-09T20:58:04.825Z,5.23
2022-10-09T21:01:10.126Z,5.85
2022-10-09T21:04:14.755Z,9.30
2022-10-09T21:07:18.072Z,7.82
2022-10-09T21:10:21.211Z,6.75
2022-10-09T21:13:24.508Z,6.20
2022-10-09T21:16:27.977Z,7.90
2022-10-09T21:19:31.102Z,9.02
2022-10-09T21:22:34.383Z,6.13
2022-10-09T21:25:37.861Z,6.07
2022-10-09T21:28:41.870Z,6.90
2022-10-09T21:31:45.022Z,6.78
2022-10-09T21:34:48.302Z,6.68
2022-10-09T21:37:51.630Z,6.38
2022-10-09T21:40:54.668Z,5.45
2022-10-09T21:43:57.864Z,5.47
2022-10-09T21:47:00.989Z,8.20
2022-10-09T21:50:04.365Z,6.97
2022-10-09T21:53:07.584Z,6.15
2022-10-09T21:56:10.928Z,7.38
2022-10-09T21:59:14.221Z,7.03
2022-10-09T22:02:17.507Z,5.22
2022-10-09T22:05:20.720Z,7.22
2022-10-09T22:08:24.224Z,5.47
2022-10-09T22:11:27.402Z,7.68
2022-10-09T22:14:31.697Z,5.33
2022-10-09T22:17:34.756Z,5.45
2022-10-09T22:20:42.714Z,5.32
2022-10-09T22:23:46.017Z,5.43
2022-10-09T22:26:49.133Z,6.10
2022-10-09T22:29:52.357Z,8.43
2022-10-09T22:32:55.541Z,7.38
2022-10-09T22:36:08.518Z,6.13
2022-10-09T22:39:12.652Z,5.65
2022-10-09T22:42:15.779Z,4.60
2022-10-09T22:45:18.875Z,5.13
2022-10-09T22:48:22.058Z,6.10
2022-10-09T22:51:27.200Z,6.05
2022-10-09T22:54:30.320Z,6.80
2022-10-09T22:57:33.460Z,7.00
2022-10-09T23:00:37.282Z,5.07
2022-10-09T23:03:40.615Z,5.65
2022-10-09T23:06:44.564Z,5.82
2022-10-09T23:09:47.884Z,7.43
2022-10-09T23:12:51.332Z,7.68
2022-10-09T23:15:54.821Z,6.87
2022-10-09T23:19:02.966Z,5.90
2022-10-09T23:22:08.789Z,7.28
2022-10-09T23:25:11.905Z,5.35
2022-10-09T23:28:15.162Z,6.18
2022-10-09T23:31:19.123Z,5.33
2022-10-09T23:34:22.392Z,6.85
2022-10-09T23:37:25.556Z,5.63
2022-10-09T23:40:29.806Z,6.65
2022-10-09T23:43:35.442Z,9.18
2022-10-09T23:46:38.581Z,9.57
2022-10-09T23:49:41.797Z,6.88
2022-10-09T23:52:45.017Z,5.65
2022-10-09T23:55:48.616Z,6.15
2022-10-09T23:58:52.938Z,8.10
